createdAt,value
2023-05-11T00:02:15.489Z,4.22
2023-05-11T00:04:58.347Z,4.28
2023-05-11T00:07:40.824Z,3.85
2023-05-11T00:10:23.294Z,4.13
2023-05-11T00:13:05.691Z,5.00
2023-05-11T00:15:48.471Z,4.15
2023-05-11T00:18:31.026Z,4.65
2023-05-11T00:21:13.310Z,4.18
2023-05-11T00:23:55.937Z,4.25
2023-05-11T00:26:38.191Z,4.30
2023-05-11T00:29:20.845Z,4.35
2023-05-11T00:32:03.309Z,4.05
2023-05-11T00:34:45.887Z,4.22
2023-05-11T00:37:28.089Z,3.88
2023-05-11T00:40:10.886Z,4.13
2023-05-11T00:42:53.083Z,4.10
2023-05-11T00:45:36.361Z,3.90
2023-05-11T00:48:18.771Z,3.97
2023-05-11T00:51:02.080Z,4.25
2023-05-11T00:53:44.396Z,4.47
2023-05-11T00:56:26.855Z,3.72
2023-05-11T00:59:09.457Z,4.00
2023-05-11T01:01:52.261Z,3.53
2023-05-11T01:04:34.848Z,4.03
2023-05-11T01:07:22.174Z,3.83
2023-05-11T01:10:27.848Z,4.00
2023-05-11T01:13:37.582Z,6.18
2023-05-11T01:16:24.640Z,5.07
2023-05-11T01:19:44.716Z,4.78
2023-05-11T01:22:51.362Z,4.25
2023-05-11T01:25:46.674Z,5.10
2023-05-11T01:28:50.885Z,6.47
2023-05-11T01:31:34.676Z,5.03
2023-05-11T01:34:22.545Z,4.13
2023-05-11T01:37:14.164Z,3.88
2023-05-11T01:40:00.043Z,5.97
2023-05-11T01:42:47.849Z,5.07
2023-05-11T01:45:33.320Z,3.80
2023-05-11T01:48:20.244Z,4.53
2023-05-11T01:51:03.854Z,4.25
2023-05-11T01:53:48.027Z,4.03
2023-05-11T01:56:31.345Z,4.00
2023-05-11T01:59:15.005Z,3.65
2023-05-11T02:01:59.171Z,4.03
2023-05-11T02:07:27.908Z,3.53
2023-05-11T02:10:12.038Z,3.80
2023-05-11T02:12:54.857Z,4.32
2023-05-11T02:15:41.572Z,3.78
2023-05-11T02:18:24.054Z,3.42
2023-05-11T02:21:16.130Z,3.60
2023-05-11T02:24:00.243Z,4.33
2023-05-11T02:26:42.862Z,3.00
2023-05-11T02:29:26.370Z,3.22
2023-05-11T02:32:13.721Z,3.50
2023-05-11T02:35:07.776Z,3.67
2023-05-11T02:37:54.004Z,3.97
2023-05-11T02:40:45.483Z,3.63
2023-05-11T02:43:32.409Z,3.50
2023-05-11T02:46:22.768Z,3.90
2023-05-11T02:49:08.763Z,3.88
2023-05-11T02:51:52.726Z,3.60
2023-05-11T02:54:39.172Z,3.50
2023-05-11T02:57:21.572Z,3.42
2023-05-11T03:00:04.974Z,3.70
2023-05-11T03:02:47.573Z,4.13
2023-05-11T03:05:35.907Z,3.60
2023-05-11T03:08:18.466Z,5.50
2023-05-11T03:11:02.350Z,3.50
2023-05-11T03:13:45.900Z,3.58
2023-05-11T03:16:31.351Z,3.20
2023-05-11T03:19:14.669Z,3.83
2023-05-11T03:21:59.812Z,3.72
2023-05-11T03:24:43.159Z,3.47
2023-05-11T03:27:26.592Z,3.90
2023-05-11T03:30:11.204Z,3.92
2023-05-11T03:32:58.341Z,4.28
2023-05-11T03:35:43.278Z,3.88
2023-05-11T03:38:28.063Z,4.20
2023-05-11T03:41:13.558Z,4.10
2023-05-11T03:43:59.192Z,3.28
2023-05-11T03:46:46.075Z,3.10
2023-05-11T03:49:30.337Z,3.92
2023-05-11T03:52:12.966Z,4.45
2023-05-11T03:54:55.709Z,4.75
2023-05-11T03:57:38.699Z,4.20
2023-05-11T04:00:22.190Z,3.63
2023-05-11T04:03:06.862Z,3.60
2023-05-11T04:05:50.094Z,3.88
2023-05-11T04:08:32.334Z,3.45
2023-05-11T04:11:16.151Z,3.53
2023-05-11T04:13:58.514Z,4.53
2023-05-11T04:16:41.479Z,4.30
2023-05-11T04:19:23.823Z,3.90
2023-05-11T04:22:06.370Z,3.83
2023-05-11T04:24:49.008Z,4.55
2023-05-11T04:27:35.129Z,3.60
2023-05-11T04:30:21.540Z,4.47
2023-05-11T04:33:05.294Z,6.05
2023-05-11T04:35:51.933Z,4.85
2023-05-11T04:38:34.889Z,3.90
2023-05-11T04:41:18.038Z,3.70
2023-05-11T04:44:01.850Z,3.63
2023-05-11T04:46:44.380Z,3.25
2023-05-11T04:49:27.355Z,3.47
2023-05-11T04:52:09.665Z,3.13
2023-05-11T04:54:53.091Z,3.55
2023-05-11T04:57:35.957Z,3.83
2023-05-11T05:00:20.886Z,3.78
2023-05-11T05:03:04.211Z,3.45
2023-05-11T05:05:48.480Z,3.42
2023-05-11T05:08:30.969Z,3.28
2023-05-11T05:11:13.803Z,3.28
2023-05-11T05:13:57.005Z,3.10
2023-05-11T05:16:39.749Z,2.92
2023-05-11T05:19:22.248Z,3.17
2023-05-11T05:22:06.602Z,3.10
2023-05-11T05:24:49.336Z,3.67
2023-05-11T05:27:34.776Z,2.50
2023-05-11T05:30:20.479Z,2.72
2023-05-11T05:33:04.312Z,3.00
2023-05-11T05:35:49.574Z,2.97
2023-05-11T05:38:32.893Z,3.08
2023-05-11T05:41:15.256Z,3.15
2023-05-11T05:44:00.567Z,2.70
2023-05-11T05:46:43.074Z,3.13
2023-05-11T05:49:26.036Z,2.58
2023-05-11T05:52:10.609Z,2.53
2023-05-11T05:54:54.731Z,2.45
2023-05-11T05:57:37.904Z,3.05
2023-05-11T06:00:20.933Z,2.60
2023-05-11T06:03:11.807Z,3.08
2023-05-11T06:05:54.470Z,3.20
2023-05-11T06:08:36.977Z,3.00
2023-05-11T06:11:19.974Z,3.00
2023-05-11T06:14:02.283Z,2.83
2023-05-11T06:16:45.731Z,2.95
2023-05-11T06:19:28.091Z,3.00
2023-05-11T06:22:11.260Z,2.72
2023-05-11T06:24:53.905Z,2.70
2023-05-11T06:27:37.546Z,3.05
2023-05-11T06:30:20.319Z,2.85
2023-05-11T06:33:05.862Z,2.45
2023-05-11T06:35:48.755Z,2.80
2023-05-11T06:38:31.385Z,2.78
2023-05-11T06:41:14.221Z,3.15
2023-05-11T06:43:56.806Z,3.10
2023-05-11T06:46:44.648Z,2.80
2023-05-11T06:49:27.328Z,2.83
2023-05-11T06:52:10.096Z,2.70
2023-05-11T06:54:52.544Z,2.80
2023-05-11T06:57:34.832Z,2.70
2023-05-11T07:00:18.117Z,3.25
2023-05-11T07:03:00.634Z,3.10
2023-05-11T07:05:43.198Z,2.92
2023-05-11T07:08:25.579Z,2.63
2023-05-11T07:11:08.193Z,2.80
2023-05-11T07:13:50.598Z,2.38
2023-05-11T07:16:33.240Z,2.97
2023-05-11T07:19:15.653Z,2.90
2023-05-11T07:21:58.162Z,3.00
2023-05-11T07:24:40.424Z,2.83
2023-05-11T07:27:22.934Z,2.60
2023-05-11T07:30:05.974Z,2.88
2023-05-11T07:32:48.992Z,2.72
2023-05-11T07:35:31.272Z,2.50
2023-05-11T07:38:13.877Z,2.85
2023-05-11T07:40:56.345Z,3.65
2023-05-11T07:43:38.970Z,2.90
2023-05-11T07:46:21.367Z,2.67
2023-05-11T07:49:15.599Z,3.05
2023-05-11T07:52:01.320Z,2.60
2023-05-11T07:54:44.811Z,2.90
2023-05-11T07:57:27.416Z,2.70
2023-05-11T08:00:11.247Z,2.45
2023-05-11T08:02:56.849Z,2.72
2023-05-11T08:05:40.096Z,2.63
2023-05-11T08:08:22.649Z,2.50
2023-05-11T08:11:06.027Z,2.30
2023-05-11T08:13:48.968Z,2.90
2023-05-11T08:16:31.208Z,2.60
2023-05-11T08:19:13.889Z,2.30
2023-05-11T08:21:56.314Z,2.50
2023-05-11T08:24:39.150Z,2.55
2023-05-11T08:27:21.478Z,2.63
2023-05-11T08:30:04.888Z,2.78
2023-05-11T08:32:57.847Z,2.60
2023-05-11T08:35:41.398Z,2.42
2023-05-11T08:38:23.992Z,2.33
2023-05-11T08:41:08.294Z,2.30
2023-05-11T08:43:54.102Z,3.00
2023-05-11T08:49:22.836Z,2.72
2023-05-11T08:52:07.962Z,2.85
2023-05-11T08:54:53.402Z,2.45
2023-05-11T08:57:36.729Z,3.35
2023-05-11T09:00:21.982Z,2.58
2023-05-11T09:03:06.078Z,2.45
2023-05-11T09:05:50.273Z,2.72
2023-05-11T09:08:35.568Z,2.42
2023-05-11T09:11:18.224Z,2.70
2023-05-11T09:14:01.001Z,2.53
2023-05-11T09:16:43.666Z,3.25
2023-05-11T09:19:26.279Z,2.72
2023-05-11T09:22:14.121Z,2.35
2023-05-11T09:24:56.785Z,2.60
2023-05-11T09:27:43.415Z,2.67
2023-05-11T09:30:26.144Z,3.33
2023-05-11T09:33:08.561Z,2.80
2023-05-11T09:35:51.932Z,2.50
2023-05-11T09:38:34.371Z,3.03
2023-05-11T09:41:20.463Z,2.75
2023-05-11T09:44:20.592Z,3.33
2023-05-11T09:47:12.892Z,2.60
2023-05-11T09:49:55.125Z,2.38
2023-05-11T09:52:51.811Z,2.40
2023-05-11T09:55:34.209Z,2.60
2023-05-11T09:58:16.936Z,2.53
2023-05-11T10:00:59.295Z,2.15
2023-05-11T10:03:51.275Z,2.78
2023-05-11T10:06:48.806Z,2.60
2023-05-11T10:09:31.614Z,2.40
2023-05-11T10:12:14.555Z,2.28
2023-05-11T10:15:02.146Z,1.88
2023-05-11T10:17:45.541Z,2.10
2023-05-11T10:20:28.390Z,2.13
2023-05-11T10:23:11.517Z,2.42
2023-05-11T10:25:55.007Z,2.28
2023-05-11T10:28:37.687Z,2.80
2023-05-11T10:31:24.503Z,2.30
2023-05-11T10:34:07.409Z,2.40
2023-05-11T10:36:52.570Z,2.20
2023-05-11T10:39:38.302Z,2.05
2023-05-11T10:42:39.418Z,2.35
2023-05-11T10:45:37.174Z,2.50
2023-05-11T10:48:22.458Z,2.15
2023-05-11T10:51:33.548Z,2.40
2023-05-11T10:54:26.354Z,2.17
2023-05-11T10:57:22.124Z,2.60
2023-05-11T11:00:43.587Z,2.70
2023-05-11T11:03:26.135Z,3.03
2023-05-11T11:06:23.972Z,2.50
2023-05-11T11:09:16.591Z,2.40
2023-05-11T11:12:09.858Z,2.10
2023-05-11T11:14:57.159Z,2.45
2023-05-11T11:17:39.762Z,2.22
2023-05-11T11:20:46.409Z,1.85
2023-05-11T11:23:43.772Z,2.17
2023-05-11T11:26:51.168Z,1.95
2023-05-11T11:29:35.878Z,2.22
2023-05-11T11:32:24.449Z,2.10
2023-05-11T11:35:42.695Z,2.10
2023-05-11T11:38:26.239Z,2.35
2023-05-11T11:41:10.483Z,2.22
2023-05-11T11:43:55.471Z,2.00
2023-05-11T11:46:38.633Z,2.78
2023-05-11T11:49:27.779Z,2.10
2023-05-11T11:52:29.645Z,2.08
2023-05-11T11:55:45.691Z,2.55
2023-05-11T11:58:43.488Z,2.45
2023-05-11T12:01:28.715Z,2.28
2023-05-11T12:04:30.347Z,2.28
2023-05-11T12:07:14.576Z,2.22
2023-05-11T12:09:57.624Z,2.17
2023-05-11T12:12:40.192Z,2.10
2023-05-11T12:15:30.139Z,1.90
2023-05-11T12:18:22.149Z,2.08
2023-05-11T12:21:05.425Z,2.15
2023-05-11T12:23:58.122Z,2.45
2023-05-11T12:26:40.880Z,1.98
2023-05-11T12:29:23.720Z,2.35
2023-05-11T12:32:13.063Z,2.35
2023-05-11T12:35:04.274Z,3.03
2023-05-11T12:37:46.971Z,1.90
2023-05-11T12:40:30.346Z,2.10
2023-05-11T12:43:21.783Z,2.13
2023-05-11T12:46:04.780Z,2.63
2023-05-11T12:48:48.445Z,2.03
2023-05-11T12:51:47.017Z,2.33
2023-05-11T12:54:40.527Z,2.08
2023-05-11T12:57:32.137Z,2.33
2023-05-11T13:00:16.775Z,1.98
2023-05-11T13:02:59.278Z,2.00
2023-05-11T13:05:42.718Z,2.15
2023-05-11T13:08:25.043Z,2.20
2023-05-11T13:11:25.579Z,2.05
2023-05-11T13:14:17.314Z,2.20
2023-05-11T13:17:00.135Z,2.03
2023-05-11T13:19:43.494Z,1.80
2023-05-11T13:22:26.201Z,1.92
2023-05-11T13:25:11.773Z,2.35
2023-05-11T13:30:38.686Z,2.13
2023-05-11T13:33:21.606Z,1.73
2023-05-11T13:36:04.226Z,1.95
2023-05-11T13:38:47.133Z,2.20
2023-05-11T13:41:29.678Z,2.28
2023-05-11T13:44:12.559Z,1.83
2023-05-11T13:46:55.548Z,2.22
2023-05-11T13:49:38.333Z,2.60
2023-05-11T13:52:21.930Z,1.90
2023-05-11T13:55:05.043Z,1.83
2023-05-11T13:57:47.639Z,1.80
2023-05-11T14:00:30.483Z,5.30
2023-05-11T14:03:13.075Z,2.00
2023-05-11T14:05:56.119Z,2.30
2023-05-11T14:08:38.551Z,2.00
2023-05-11T14:11:21.598Z,1.75
2023-05-11T14:14:04.285Z,1.90
2023-05-11T14:16:46.921Z,1.80
2023-05-11T14:19:29.207Z,2.35
2023-05-11T14:22:13.807Z,1.95
2023-05-11T14:24:56.386Z,1.88
2023-05-11T14:27:39.436Z,2.25
2023-05-11T14:30:21.990Z,2.33
2023-05-11T14:33:04.731Z,1.88
2023-05-11T14:35:49.425Z,2.35
2023-05-11T14:38:32.176Z,2.13
2023-05-11T14:41:14.520Z,2.33
2023-05-11T14:43:57.101Z,1.80
2023-05-11T14:46:39.781Z,2.38
2023-05-11T14:49:22.372Z,2.22
2023-05-11T14:52:04.997Z,2.22
2023-05-11T14:54:47.817Z,1.90
2023-05-11T14:57:30.271Z,2.03
2023-05-11T15:00:13.508Z,2.40
2023-05-11T15:02:56.010Z,1.73
2023-05-11T15:05:39.295Z,2.10
2023-05-11T15:08:29.665Z,2.13
2023-05-11T15:11:13.559Z,2.33
2023-05-11T15:13:56.616Z,2.10
2023-05-11T15:16:39.217Z,2.38
2023-05-11T15:19:22.400Z,2.47
2023-05-11T15:22:05.931Z,1.92
2023-05-11T15:24:48.562Z,1.63
2023-05-11T15:27:32.464Z,2.00
2023-05-11T15:30:14.990Z,1.88
2023-05-11T15:32:57.521Z,2.42
2023-05-11T15:35:39.727Z,2.30
2023-05-11T15:38:22.353Z,1.92
2023-05-11T15:41:04.500Z,2.50
2023-05-11T15:43:47.677Z,2.30
2023-05-11T15:46:30.278Z,2.70
2023-05-11T15:49:12.999Z,2.90
2023-05-11T15:51:55.193Z,2.90
2023-05-11T15:54:37.710Z,2.85
2023-05-11T15:57:19.973Z,2.58
2023-05-11T16:00:04.326Z,2.72
2023-05-11T16:02:50.155Z,2.60
2023-05-11T16:05:33.113Z,2.47
2023-05-11T16:08:15.424Z,2.58
2023-05-11T16:11:00.108Z,2.70
2023-05-11T16:13:42.746Z,2.67
2023-05-11T16:16:25.766Z,2.28
2023-05-11T16:19:08.529Z,2.55
2023-05-11T16:21:53.039Z,2.75
2023-05-11T16:24:35.201Z,2.50
2023-05-11T16:27:17.726Z,2.47
2023-05-11T16:30:01.226Z,2.38
2023-05-11T16:32:50.430Z,2.53
2023-05-11T16:35:32.798Z,2.60
2023-05-11T16:38:20.234Z,2.67
2023-05-11T16:41:02.397Z,2.13
2023-05-11T16:43:46.295Z,3.33
2023-05-11T16:46:28.751Z,2.45
2023-05-11T16:49:11.421Z,2.63
2023-05-11T16:51:53.760Z,2.90
2023-05-11T16:54:36.286Z,2.58
2023-05-11T16:57:18.557Z,2.60
2023-05-11T17:00:01.071Z,2.30
2023-05-11T17:02:43.402Z,2.80
2023-05-11T17:05:26.230Z,2.28
2023-05-11T17:08:08.482Z,2.63
2023-05-11T17:10:53.009Z,2.42
2023-05-11T17:13:35.259Z,3.05
2023-05-11T17:16:17.949Z,2.55
2023-05-11T17:19:00.501Z,2.35
2023-05-11T17:21:44.999Z,2.88
2023-05-11T17:24:28.657Z,2.90
2023-05-11T17:27:11.379Z,3.20
2023-05-11T17:29:53.556Z,3.70
2023-05-11T17:32:37.828Z,3.13
2023-05-11T17:35:20.421Z,3.08
2023-05-11T17:38:03.173Z,3.17
2023-05-11T17:40:46.082Z,3.35
2023-05-11T17:43:29.920Z,3.08
2023-05-11T17:46:12.720Z,3.00
2023-05-11T17:48:55.726Z,2.80
2023-05-11T17:51:38.122Z,3.15
2023-05-11T17:54:20.715Z,3.28
2023-05-11T17:57:05.203Z,3.20
2023-05-11T17:59:48.332Z,3.30
2023-05-11T18:02:31.232Z,3.15
2023-05-11T18:05:15.279Z,3.38
2023-05-11T18:07:58.219Z,3.60
2023-05-11T18:10:41.436Z,3.35
2023-05-11T18:13:24.950Z,4.05
2023-05-11T18:16:08.038Z,5.35
2023-05-11T18:18:51.062Z,6.50
2023-05-11T18:21:34.987Z,7.57
2023-05-11T18:24:18.335Z,9.77
2023-05-11T18:27:01.435Z,7.95
2023-05-11T18:29:45.137Z,5.72
2023-05-11T18:32:28.421Z,4.90
2023-05-11T18:35:11.217Z,4.10
2023-05-11T18:37:55.651Z,4.10
2023-05-11T18:40:38.259Z,4.22
2023-05-11T18:43:21.289Z,4.18
2023-05-11T18:46:13.353Z,4.15
2023-05-11T18:48:56.219Z,4.95
2023-05-11T18:51:38.728Z,4.60
2023-05-11T18:54:22.326Z,5.20
2023-05-11T18:57:06.028Z,5.03
2023-05-11T18:59:48.739Z,4.70
2023-05-11T19:02:31.919Z,4.50
2023-05-11T19:05:14.764Z,4.82
2023-05-11T19:07:57.166Z,4.68
2023-05-11T19:10:40.652Z,4.38
2023-05-11T19:13:23.328Z,5.25
2023-05-11T19:16:06.325Z,4.50
2023-05-11T19:18:49.677Z,4.43
2023-05-11T19:21:33.337Z,4.57
2023-05-11T19:24:15.785Z,4.60
2023-05-11T19:27:07.489Z,4.75
2023-05-11T19:29:50.748Z,4.35
2023-05-11T19:32:33.503Z,4.60
2023-05-11T19:35:16.446Z,5.18
2023-05-11T19:37:59.280Z,5.82
2023-05-11T19:43:27.497Z,6.40
2023-05-11T19:46:09.970Z,6.43
2023-05-11T19:48:53.525Z,6.32
2023-05-11T19:51:35.914Z,8.10
2023-05-11T19:54:18.510Z,8.98
2023-05-11T19:57:00.877Z,10.98
2023-05-11T19:59:44.802Z,11.13
2023-05-11T20:02:28.055Z,9.50
2023-05-11T20:05:10.928Z,9.57
2023-05-11T20:07:53.461Z,9.10
2023-05-11T20:10:38.801Z,6.60
2023-05-11T20:13:22.108Z,6.05
2023-05-11T20:16:06.006Z,5.70
2023-05-11T20:18:48.575Z,5.93
2023-05-11T20:21:32.224Z,6.03
2023-05-11T20:24:14.863Z,5.00
2023-05-11T20:26:57.535Z,4.97
2023-05-11T20:29:40.538Z,7.68
2023-05-11T20:32:23.822Z,9.00
2023-05-11T20:35:06.874Z,9.32
2023-05-11T20:37:49.581Z,8.55
2023-05-11T20:40:32.180Z,9.10
2023-05-11T20:43:16.729Z,9.07
2023-05-11T20:46:03.953Z,8.32
2023-05-11T20:48:51.474Z,7.10
2023-05-11T20:51:35.853Z,7.80
2023-05-11T20:54:18.568Z,6.63
2023-05-11T20:57:01.665Z,6.47
2023-05-11T21:02:33.288Z,7.32
2023-05-11T21:05:16.026Z,7.00
2023-05-11T21:07:58.241Z,6.38
2023-05-11T21:10:41.700Z,7.25
2023-05-11T21:13:23.876Z,8.35
2023-05-11T21:16:07.533Z,7.15
2023-05-11T21:18:49.887Z,7.55
2023-05-11T21:21:33.467Z,6.45
2023-05-11T21:24:16.454Z,6.40
2023-05-11T21:26:59.976Z,6.22
2023-05-11T21:29:42.228Z,5.38
2023-05-11T21:32:24.821Z,6.72
2023-05-11T21:35:07.564Z,5.85
2023-05-11T21:37:50.339Z,5.90
2023-05-11T21:40:32.637Z,5.22
2023-05-11T21:43:15.141Z,5.22
2023-05-11T21:45:57.367Z,5.00
2023-05-11T21:48:39.866Z,4.38
2023-05-11T21:51:22.036Z,4.80
2023-05-11T21:54:04.661Z,5.18
2023-05-11T21:56:46.900Z,4.80
2023-05-11T21:59:29.411Z,4.55
2023-05-11T22:02:11.749Z,4.38
2023-05-11T22:04:54.365Z,4.22
2023-05-11T22:07:36.851Z,3.72
2023-05-11T22:10:20.113Z,3.70
2023-05-11T22:13:02.546Z,4.20
2023-05-11T22:15:45.073Z,6.57
2023-05-11T22:18:27.290Z,6.80
2023-05-11T22:21:09.768Z,5.07
2023-05-11T22:23:51.922Z,3.90
2023-05-11T22:26:34.427Z,4.20
2023-05-11T22:29:16.583Z,3.58
2023-05-11T22:31:59.111Z,3.40
2023-05-11T22:34:42.029Z,3.50
2023-05-11T22:37:25.015Z,3.90
2023-05-11T22:40:07.839Z,3.42
2023-05-11T22:42:50.382Z,3.35
2023-05-11T22:45:32.599Z,3.97
2023-05-11T22:48:15.069Z,4.63
2023-05-11T22:50:57.186Z,5.00
2023-05-11T22:53:39.608Z,4.13
2023-05-11T22:56:22.274Z,4.50
2023-05-11T22:59:05.467Z,4.20
2023-05-11T23:01:47.849Z,3.58
2023-05-11T23:04:32.406Z,3.70
2023-05-11T23:07:14.668Z,3.65
2023-05-11T23:09:57.413Z,3.58
2023-05-11T23:12:39.697Z,4.10
2023-05-11T23:15:22.218Z,3.70
2023-05-11T23:18:04.557Z,3.80
2023-05-11T23:20:47.123Z,4.03
2023-05-11T23:23:29.265Z,3.70
2023-05-11T23:26:11.914Z,3.95
2023-05-11T23:28:54.415Z,4.43
2023-05-11T23:31:36.975Z,4.95
2023-05-11T23:34:19.192Z,5.80
2023-05-11T23:37:01.623Z,5.57
2023-05-11T23:39:43.770Z,5.32
2023-05-11T23:42:26.291Z,5.30
2023-05-11T23:45:08.786Z,4.97
2023-05-11T23:47:52.374Z,5.18
2023-05-11T23:50:34.627Z,5.38
2023-05-11T23:53:17.090Z,6.13
2023-05-11T23:55:59.328Z,4.97
2023-05-11T23:58:44.464Z,4.97
